Time;durP1;ratioP1;P1;durP2;ratioP2;P2;SDS_P1;SDS_P2;PMS_P1;PMS_P2;Temp;Humidity;BMP_temperature;BMP_pressure;BME280_temperature;BME280_humidity;BME280_pressure;Samples;Min_cycle;Max_cycle;Signal;HPM_P1;HPM_P2
2022/01/21 00:30:20;;;;;;;24.17;11.27;;;;;;;5.72;58.39;94729.41;5172744;27;20510;-79
2022/01/21 00:32:48;;;;;;;17.80;11.03;;;;;;;5.78;58.98;94721.19;5172555;27;20440;-79
2022/01/21 00:35:17;;;;;;;16.40;9.53;;;;;;;5.56;59.06;94716.63;5172730;27;20451;-79
2022/01/21 00:37:47;;;;;;;11.47;9.00;;;;;;;5.65;58.70;94741.19;5172671;27;20440;-78
2022/01/21 00:40:18;;;;;;;12.70;8.10;;;;;;;5.72;57.66;94739.81;5172996;27;20447;-79
2022/01/21 00:43:09;;;;;;;19.70;12.53;;;;;;;5.46;58.37;94723.38;5172946;27;20850;-83
2022/01/21 00:45:36;;;;;;;10.77;7.07;;;;;;;5.27;58.55;94745.44;5172414;27;20444;-78
2022/01/21 00:48:03;;;;;;;13.83;8.00;;;;;;;4.78;60.12;94742.59;5172599;27;20436;-79
2022/01/21 00:50:31;;;;;;;19.17;9.73;;;;;;;4.98;60.63;94760.34;5172795;27;20501;-79
2022/01/21 00:52:59;;;;;;;25.20;12.90;;;;;;;4.89;60.60;94740.13;5172555;27;20436;-80
2022/01/21 00:55:26;;;;;;;15.63;8.70;;;;;;;4.81;60.44;94739.81;5172532;27;20439;-79
2022/01/21 00:57:53;;;;;;;18.40;9.10;;;;;;;4.95;60.48;94737.16;5172294;27;20444;-79
2022/01/21 01:00:20;;;;;;;16.77;10.30;;;;;;;4.82;61.07;94728.47;5172491;27;20444;-79
2022/01/21 01:02:47;;;;;;;23.17;10.80;;;;;;;5.02;61.67;94750.59;5172325;27;20440;-80
2022/01/21 01:05:14;;;;;;;23.13;9.93;;;;;;;5.03;61.39;94746.22;5172203;27;20455;-80
2022/01/21 01:07:41;;;;;;;27.27;12.47;;;;;;;4.99;62.27;94756.00;5172148;27;20929;-79
2022/01/21 01:10:17;;;;;;;25.10;13.20;;;;;;;5.25;61.71;94755.13;5171946;27;20840;-80
2022/01/21 01:12:56;;;;;;;19.03;10.53;;;;;;;5.22;63.31;94737.13;5171823;27;20925;-79
2022/01/21 01:20:52;;;;;;;25.03;11.13;;;;;;;5.60;61.89;94764.94;5152901;27;21106;-79
2022/01/21 01:23:29;;;;;;;19.10;11.30;;;;;;;5.48;61.51;94748.34;5157480;27;20433;-79
2022/01/21 01:28:42;;;;;;;15.80;9.27;;;;;;;5.53;65.24;94735.06;5158075;27;20787;-80
2022/01/21 01:31:09;;;;;;;12.10;8.20;;;;;;;5.60;68.11;94744.94;5157814;27;20486;-79
2022/01/21 01:33:39;;;;;;;16.27;8.67;;;;;;;5.57;68.05;94741.72;5157352;27;20802;-80
2022/01/21 01:36:07;;;;;;;17.60;9.20;;;;;;;5.58;71.55;94754.63;5157743;27;20441;-79
2022/01/21 01:41:39;;;;;;;13.63;9.50;;;;;;;5.41;79.44;94752.31;5109881;27;20430;-80
2022/01/21 01:49:36;;;;;;;11.93;7.23;;;;;;;5.31;84.39;94751.28;5134701;27;20475;-80
2022/01/21 01:52:06;;;;;;;10.27;8.00;;;;;;;5.38;84.23;94743.88;5134555;27;20529;-80
2022/01/21 01:54:36;;;;;;;11.57;7.03;;;;;;;5.47;84.97;94748.47;5134386;27;20437;-79
2022/01/21 01:57:06;;;;;;;15.53;7.30;;;;;;;5.52;85.13;94734.22;5134551;27;20501;-79
2022/01/21 01:59:33;;;;;;;12.97;8.50;;;;;;;5.58;84.93;94751.19;5134202;27;20553;-79
2022/01/21 02:02:01;;;;;;;13.90;7.60;;;;;;;5.64;85.03;94742.97;5134207;27;20465;-79
2022/01/21 02:04:29;;;;;;;9.23;7.80;;;;;;;5.65;84.74;94735.97;5134293;27;20536;-80
2022/01/21 02:06:56;;;;;;;11.03;7.60;;;;;;;5.73;84.36;94752.75;5134234;27;20572;-79
2022/01/21 02:09:23;;;;;;;15.33;8.40;;;;;;;5.76;83.52;94749.09;5134205;27;20939;-80
2022/01/21 02:11:51;;;;;;;15.10;8.00;;;;;;;5.78;83.74;94755.03;5139283;27;20484;-79
2022/01/21 02:14:23;;;;;;;19.23;8.13;;;;;;;5.81;83.34;94749.63;5156605;27;20875;-80
2022/01/21 02:22:36;;;;;;;12.57;10.07;;;;;;;5.71;85.82;94748.56;4990399;28;20432;-80
2022/01/21 02:25:15;;;;;;;15.43;10.17;;;;;;;5.70;85.55;94750.34;4990392;28;20509;-80
2022/01/21 02:27:44;;;;;;;25.73;9.83;;;;;;;5.55;85.69;94748.81;4990253;28;20534;-79
2022/01/21 02:30:18;;;;;;;17.33;11.27;;;;;;;5.48;87.35;94753.56;5058413;28;20553;-80
2022/01/21 02:32:46;;;;;;;17.87;11.70;;;;;;;5.37;87.56;94735.25;4956845;28;20441;-79
2022/01/21 02:35:14;;;;;;;17.97;10.90;;;;;;;5.37;88.05;94750.84;4990147;28;20505;-79
2022/01/21 02:37:42;;;;;;;18.57;11.70;;;;;;;5.33;87.96;94754.59;4990291;28;20456;-79
2022/01/21 02:40:11;;;;;;;16.70;11.03;;;;;;;5.33;88.34;94764.16;4990032;28;20784;-79
2022/01/21 02:42:38;;;;;;;17.10;11.30;;;;;;;5.37;88.04;94771.66;5058311;28;20459;-79
2022/01/21 02:45:07;;;;;;;13.33;10.50;;;;;;;5.38;87.01;94781.13;5058243;28;20440;-79
2022/01/21 02:47:34;;;;;;;19.30;10.03;;;;;;;5.42;86.94;94786.97;4990326;28;20455;-79
2022/01/21 02:50:01;;;;;;;17.27;9.97;;;;;;;5.29;86.81;94780.00;4989919;28;20479;-80
2022/01/21 02:52:30;;;;;;;40.03;22.30;;;;;;;5.08;88.63;94798.75;4989970;28;20456;-80
2022/01/21 02:54:59;;;;;;;38.07;20.77;;;;;;;4.87;88.94;94798.38;5064857;28;20441;-79
2022/01/21 02:57:26;;;;;;;30.80;14.60;;;;;;;4.63;91.47;94792.97;5071559;28;20536;-79
2022/01/21 02:59:52;;;;;;;26.33;13.00;;;;;;;4.35;92.70;94792.09;5071168;27;20441;-80
2022/01/21 03:02:19;;;;;;;10.90;9.53;;;;;;;4.17;94.84;94793.22;5071292;28;20448;-80
2022/01/21 03:04:55;;;;;;;31.23;18.10;;;;;;;3.96;96.58;94784.16;5071103;28;20443;-80
2022/01/21 03:07:22;;;;;;;17.23;11.67;;;;;;;3.58;98.06;94794.25;5118708;27;20459;-79
2022/01/21 03:09:49;;;;;;;15.20;12.80;;;;;;;3.41;100.00;94792.63;5105251;28;20478;-77
2022/01/21 03:12:17;;;;;;;6.50;5.80;;;;;;;3.28;100.00;94786.50;5139968;27;20439;-80
2022/01/21 03:14:44;;;;;;;6.13;5.27;;;;;;;3.19;100.00;94794.81;5105095;28;20445;-80
2022/01/21 03:17:11;;;;;;;9.87;8.10;;;;;;;3.05;100.00;94786.06;5071129;28;20453;-79
2022/01/21 03:19:38;;;;;;;24.13;15.17;;;;;;;2.95;100.00;94784.91;5104835;28;20945;-80
2022/01/21 03:22:05;;;;;;;13.10;10.63;;;;;;;2.91;100.00;94788.63;5070704;28;20453;-79
2022/01/21 03:24:32;;;;;;;12.67;7.90;;;;;;;2.81;100.00;94790.03;5070933;27;20447;-79
2022/01/21 03:26:59;;;;;;;41.97;23.67;;;;;;;2.75;100.00;94787.78;5071338;27;20451;-80
2022/01/21 03:29:27;;;;;;;20.87;10.80;;;;;;;2.66;100.00;94783.13;5071266;28;20446;-79
2022/01/21 03:31:54;;;;;;;16.80;9.90;;;;;;;2.63;100.00;94786.72;5070946;28;20486;-80
2022/01/21 03:34:21;;;;;;;17.30;11.73;;;;;;;2.60;100.00;94783.44;5071091;27;20450;-79
2022/01/21 03:36:49;;;;;;;13.50;10.77;;;;;;;2.62;100.00;94785.06;5070418;28;20443;-79
2022/01/21 03:39:17;;;;;;;25.47;19.63;;;;;;;2.66;100.00;94796.91;5070808;27;20472;-79
2022/01/21 03:41:43;;;;;;;23.10;17.20;;;;;;;2.65;100.00;94802.19;5070446;28;20434;-79
2022/01/21 03:44:10;;;;;;;21.80;13.80;;;;;;;2.62;100.00;94803.19;5070015;28;20448;-80
2022/01/21 03:46:39;;;;;;;23.83;15.83;;;;;;;2.57;100.00;94805.19;5070242;27;20456;-79
2022/01/21 03:49:07;;;;;;;17.90;10.67;;;;;;;2.60;100.00;94812.81;5070283;28;20444;-79
2022/01/21 03:51:34;;;;;;;13.40;9.18;;;;;;;2.69;100.00;94811.44;5070008;27;20483;-79
2022/01/21 03:54:01;;;;;;;5.40;4.07;;;;;;;2.62;100.00;94810.13;5070131;28;20211;-79
2022/01/21 03:56:28;;;;;;;10.20;7.40;;;;;;;2.63;100.00;94802.28;5070125;28;20937;-79
2022/01/21 03:58:55;;;;;;;5.53;4.30;;;;;;;2.57;100.00;94806.94;5070124;28;20573;-79
2022/01/21 04:01:24;;;;;;;9.90;6.60;;;;;;;2.48;100.00;94822.06;5104143;28;20445;-79
2022/01/21 04:03:52;;;;;;;9.53;7.50;;;;;;;2.46;100.00;94817.88;5069908;28;20452;-79
2022/01/21 04:06:19;;;;;;;4.97;3.67;;;;;;;2.53;100.00;94818.38;5070055;28;20445;-77
2022/01/21 04:08:46;;;;;;;3.83;3.27;;;;;;;2.53;100.00;94834.75;5070297;28;20788;-79
2022/01/21 04:11:13;;;;;;;4.93;3.43;;;;;;;2.45;100.00;94822.22;5069857;28;20485;-79
2022/01/21 04:13:40;;;;;;;4.60;4.20;;;;;;;2.41;100.00;94827.66;5069931;28;20449;-79
2022/01/21 04:16:07;;;;;;;5.37;3.57;;;;;;;2.44;100.00;94835.25;5104092;28;20444;-79
2022/01/21 04:18:33;;;;;;;3.40;3.20;;;;;;;2.59;100.00;94843.94;5069969;28;20445;-80
2022/01/21 04:21:02;;;;;;;3.37;3.07;;;;;;;2.61;100.00;94847.31;5070007;28;20491;-79
2022/01/21 04:23:29;;;;;;;4.50;4.10;;;;;;;2.61;100.00;94852.50;5069876;28;20790;-79
2022/01/21 04:25:56;;;;;;;4.90;4.50;;;;;;;2.53;100.00;94852.88;5069724;28;20449;-79
2022/01/21 04:28:24;;;;;;;5.87;4.30;;;;;;;2.55;100.00;94857.97;5069931;28;20445;-80
2022/01/21 04:30:51;;;;;;;2.67;2.47;;;;;;;2.56;100.00;94857.06;5070240;28;20471;-79
2022/01/21 04:33:18;;;;;;;4.03;3.20;;;;;;;2.52;100.00;94871.94;5069523;28;20455;-80
2022/01/21 04:35:45;;;;;;;4.87;3.50;;;;;;;2.56;100.00;94875.19;5069353;28;20454;-78
2022/01/21 04:38:16;;;;;;;6.17;4.77;;;;;;;2.60;100.00;94874.97;5103947;28;20791;-79
2022/01/21 04:40:49;;;;;;;6.20;5.40;;;;;;;2.59;100.00;94882.78;5069520;28;20457;-79
2022/01/21 04:48:45;;;;;;;6.73;5.30;;;;;;;2.57;100.00;94893.25;5069450;28;20445;-78
2022/01/21 04:51:15;;;;;;;3.20;2.90;;;;;;;2.64;100.00;94898.94;5069397;28;20480;-79
2022/01/21 04:53:45;;;;;;;3.50;3.00;;;;;;;2.60;100.00;94894.81;5069634;28;20455;-79
2022/01/21 04:56:12;;;;;;;3.30;2.83;;;;;;;2.43;100.00;94901.75;5104233;28;20947;-79
2022/01/21 04:58:39;;;;;;;3.50;3.27;;;;;;;2.47;100.00;94916.22;5073346;28;20449;-79
2022/01/21 05:01:07;;;;;;;3.37;3.07;;;;;;;2.44;100.00;94918.97;5073385;28;20445;-79
2022/01/21 05:03:35;;;;;;;5.73;4.00;;;;;;;2.44;100.00;94921.56;5074522;28;20449;-80
2022/01/21 05:06:03;;;;;;;5.37;4.97;;;;;;;2.41;100.00;94924.31;5075040;28;20444;-80
2022/01/21 05:08:37;;;;;;;8.17;5.47;;;;;;;2.37;100.00;94933.16;5109431;28;20920;-80
2022/01/21 05:11:06;;;;;;;4.03;3.20;;;;;;;2.27;100.00;94934.53;5074142;27;20493;-79
2022/01/21 05:13:39;;;;;;;5.20;4.70;;;;;;;2.23;100.00;94938.19;5074435;28;20210;-78
2022/01/21 05:16:09;;;;;;;9.05;5.85;;;;;;;2.24;100.00;94939.03;5074960;27;20215;-79
2022/01/21 05:18:36;;;;;;;7.63;5.00;;;;;;;2.13;100.00;94932.66;5073350;28;20644;-78
2022/01/21 05:21:03;;;;;;;7.37;4.90;;;;;;;2.10;100.00;94947.53;5074794;28;20484;-79
2022/01/21 05:23:30;;;;;;;7.20;5.07;;;;;;;2.05;100.00;94944.34;5077104;28;20445;-78
2022/01/21 05:25:57;;;;;;;7.60;5.17;;;;;;;2.04;100.00;94955.59;5072499;28;20448;-79
2022/01/21 05:28:26;;;;;;;5.03;3.70;;;;;;;2.00;100.00;94954.06;5106515;28;20524;-79
2022/01/21 05:30:52;;;;;;;4.07;3.53;;;;;;;1.92;100.00;94957.03;5072261;28;20487;-79
2022/01/21 05:33:19;;;;;;;6.45;3.03;;;;;;;1.85;100.00;94958.25;5072256;28;20580;-79
2022/01/21 05:35:46;;;;;;;8.88;4.35;;;;;;;1.79;100.00;94974.09;5106383;28;20208;-80
2022/01/21 05:38:13;;;;;;;5.82;4.35;;;;;;;1.71;100.00;94974.44;5072960;28;20194;-81
2022/01/21 05:40:42;;;;;;;6.50;5.32;;;;;;;1.72;100.00;94976.13;5073342;28;20210;-87
2022/01/21 05:43:09;;;;;;;18.02;7.28;;;;;;;1.83;100.00;94985.97;5073317;27;20263;-80
2022/01/21 05:48:22;;;;;;;15.43;6.13;;;;;;;1.95;100.00;94994.84;5073205;28;20414;-78
2022/01/21 05:50:49;;;;;;;12.37;6.13;;;;;;;1.96;100.00;95004.28;5072910;28;20660;-80
2022/01/21 05:56:38;;;;;;;5.83;5.20;;;;;;;1.94;100.00;95000.94;5072947;28;20453;-78
2022/01/21 05:59:05;;;;;;;8.60;5.57;;;;;;;1.94;100.00;95016.47;5073370;28;20449;-79
2022/01/21 06:01:35;;;;;;;4.40;3.40;;;;;;;1.96;100.00;95019.81;5072849;28;20437;-80
2022/01/21 06:04:03;;;;;;;3.27;2.90;;;;;;;2.01;100.00;95028.19;5107844;28;20437;-79
2022/01/21 06:06:30;;;;;;;8.80;5.20;;;;;;;2.01;100.00;95033.38;5071782;28;21021;-78
2022/01/21 06:08:57;;;;;;;7.82;3.80;;;;;;;1.92;100.00;95039.00;5073055;28;20209;-82
2022/01/21 06:11:24;;;;;;;7.60;3.97;;;;;;;1.81;100.00;95042.94;5072517;28;20215;-79
2022/01/21 06:13:51;;;;;;;5.80;3.42;;;;;;;1.90;100.00;95051.19;5072928;28;20429;-78
2022/01/21 06:16:18;;;;;;;6.15;3.72;;;;;;;1.99;100.00;95050.72;5072589;28;20209;-78
2022/01/21 06:18:47;;;;;;;6.53;4.40;;;;;;;1.95;100.00;95056.97;5072579;28;20204;-80
2022/01/21 06:21:14;;;;;;;4.25;3.85;;;;;;;1.97;100.00;95061.16;5071755;28;20233;-80
2022/01/21 06:23:41;;;;;;;9.88;3.35;;;;;;;2.02;100.00;95069.50;5069327;28;20193;-80
2022/01/21 06:26:17;;;;;;;5.00;3.30;;;;;;;1.97;100.00;95078.41;5052316;27;20379;-79
2022/01/21 06:28:44;;;;;;;15.50;5.43;;;;;;;1.80;100.00;95081.84;5052078;28;20453;-79
2022/01/21 06:31:11;;;;;;;7.07;3.87;;;;;;;1.77;100.00;95082.81;5052495;27;20485;-80
2022/01/21 06:36:58;;;;;;;8.00;5.07;;;;;;;1.38;100.00;95090.66;5093285;28;20504;-81
2022/01/21 06:39:36;;;;;;;6.20;5.65;;;;;;;1.33;100.00;95090.06;5093240;28;20448;-80
2022/01/21 06:42:27;;;;;;;7.60;3.67;;;;;;;1.12;100.00;95099.59;5093227;28;20213;-79
2022/01/21 06:45:40;;;;;;;9.30;6.45;;;;;;;1.04;100.00;95104.28;5092888;28;20452;-79
2022/01/21 06:48:40;;;;;;;3.58;3.28;;;;;;;0.99;100.00;95106.22;5073096;28;20202;-82
2022/01/21 06:51:14;;;;;;;9.43;7.18;;;;;;;1.11;100.00;95113.44;4993427;28;20584;-81
2022/01/21 06:54:11;;;;;;;7.72;4.80;;;;;;;1.06;100.00;95106.78;4993525;28;20213;-82
2022/01/21 06:59:56;;;;;;;10.83;6.40;;;;;;;1.27;100.00;95120.50;4986291;28;20201;-81
2022/01/21 07:02:24;;;;;;;6.03;5.43;;;;;;;1.41;100.00;95131.06;5005985;28;20443;-80
2022/01/21 07:04:51;;;;;;;13.25;6.95;;;;;;;1.58;100.00;95144.06;5012312;28;20192;-80
2022/01/21 07:07:20;;;;;;;15.67;11.07;;;;;;;1.70;99.78;95147.81;5012427;28;20213;-79
2022/01/21 07:09:49;;;;;;;11.80;9.50;;;;;;;1.86;99.31;95141.88;5012428;28;20436;-80
2022/01/21 07:12:16;;;;;;;18.73;13.30;;;;;;;2.00;98.43;95145.56;5012353;28;20835;-81
2022/01/21 07:14:43;;;;;;;34.63;20.93;;;;;;;1.98;97.07;95150.81;5032747;28;20450;-80
2022/01/21 07:17:10;;;;;;;31.87;16.40;;;;;;;2.06;96.27;95145.28;5047168;28;20439;-81
2022/01/21 07:19:37;;;;;;;19.30;11.93;;;;;;;2.18;96.19;95155.03;5050418;28;20460;-79
2022/01/21 07:22:05;;;;;;;13.67;10.67;;;;;;;2.30;95.30;95149.25;5051405;28;20456;-80
2022/01/21 07:24:31;;;;;;;25.40;12.63;;;;;;;2.21;94.05;95167.84;5051078;28;20444;-79
2022/01/21 07:27:00;;;;;;;22.57;12.27;;;;;;;2.26;94.11;95176.22;5050838;28;20958;-80
2022/01/21 07:29:27;;;;;;;15.63;8.90;;;;;;;2.32;93.94;95170.78;5102291;28;20525;-80
2022/01/21 07:31:54;;;;;;;12.70;5.70;;;;;;;2.48;93.60;95179.44;5050744;28;20980;-81
2022/01/21 07:34:21;;;;;;;5.30;4.30;;;;;;;2.58;92.90;95179.00;5050792;28;20473;-80
2022/01/21 07:36:49;;;;;;;7.83;4.57;;;;;;;2.65;92.31;95180.41;5050945;28;20483;-79
2022/01/21 07:39:25;;;;;;;7.63;5.97;;;;;;;2.72;91.11;95179.16;5051133;27;20467;-81
2022/01/21 07:42:00;;;;;;;8.53;5.23;;;;;;;2.73;90.53;95183.44;5099293;28;20449;-82
2022/01/21 07:44:28;;;;;;;16.33;10.23;;;;;;;2.66;90.06;95195.03;5052763;27;20458;-80
2022/01/21 07:46:55;;;;;;;20.50;12.10;;;;;;;2.62;90.05;95193.50;5102630;28;20527;-80
2022/01/21 07:49:22;;;;;;;43.13;19.60;;;;;;;2.41;90.47;95185.00;5042477;28;20546;-80
2022/01/21 07:51:49;;;;;;;25.13;13.93;;;;;;;2.20;92.45;95186.88;5032221;28;20483;-80
2022/01/21 07:54:16;;;;;;;19.53;13.10;;;;;;;1.96;93.98;95186.25;5033941;28;20970;-80
2022/01/21 07:56:43;;;;;;;22.73;11.80;;;;;;;1.98;94.59;95192.19;5041458;28;20438;-81
2022/01/21 07:59:13;;;;;;;16.47;8.30;;;;;;;1.99;95.08;95198.22;5048101;28;20433;-81
2022/01/21 08:01:42;;;;;;;9.10;7.93;;;;;;;1.98;95.06;95197.38;5080597;27;20446;-79
2022/01/21 08:04:09;;;;;;;11.20;6.97;;;;;;;2.00;95.11;95202.47;5031032;28;20446;-80
2022/01/21 08:06:38;;;;;;;24.77;15.77;;;;;;;2.04;94.77;95206.63;5059937;28;20927;-79
2022/01/21 08:09:05;;;;;;;15.80;11.02;;;;;;;2.00;94.28;95199.91;5047326;28;20463;-80
2022/01/21 08:11:33;;;;;;;18.10;11.47;;;;;;;2.12;94.50;95226.06;5033226;27;20279;-81
2022/01/21 08:24:25;;;;;;;17.00;12.10;;;;;;;2.03;94.92;95229.09;5023427;28;20323;-82
2022/01/21 08:26:52;;;;;;;17.77;11.63;;;;;;;1.97;93.96;95231.09;5034279;28;20440;-80
2022/01/21 08:29:19;;;;;;;24.97;13.57;;;;;;;2.09;94.06;95233.13;5037347;28;20451;-82
2022/01/21 08:31:46;;;;;;;30.77;12.90;;;;;;;2.21;94.30;95242.06;5031967;28;20470;-81
2022/01/21 08:34:13;;;;;;;51.87;17.50;;;;;;;2.21;93.66;95232.56;5033761;28;20200;-81
2022/01/21 08:36:40;;;;;;;21.13;13.90;;;;;;;2.25;93.60;95230.66;5034309;28;20440;-83
2022/01/21 08:39:08;;;;;;;39.95;14.30;;;;;;;2.31;93.18;95249.31;5032797;28;20438;-82
2022/01/21 08:41:36;;;;;;;21.90;10.63;;;;;;;2.39;92.70;95247.25;5033899;28;20192;-82
2022/01/21 08:44:03;;;;;;;20.77;8.33;;;;;;;2.32;91.18;95250.19;5033478;28;20442;-82
2022/01/21 08:46:30;;;;;;;10.60;8.57;;;;;;;2.40;90.79;95241.16;5033949;28;20448;-82
2022/01/21 08:48:57;;;;;;;26.13;8.63;;;;;;;2.45;90.78;95220.19;5033461;28;20192;-83
2022/01/21 08:51:29;;;;;;;16.73;7.83;;;;;;;2.63;90.37;95221.91;5033757;28;20431;-82
2022/01/21 08:53:56;;;;;;;11.67;7.33;;;;;;;2.77;90.08;95222.06;5066892;28;20448;-82
2022/01/21 08:56:23;;;;;;;37.63;17.37;;;;;;;2.88;89.56;95228.47;5033382;28;20444;-81
2022/01/21 08:58:51;;;;;;;19.77;8.67;;;;;;;2.96;88.34;95234.13;5033271;28;20886;-82
2022/01/21 09:01:19;;;;;;;10.30;6.60;;;;;;;2.86;85.92;95244.09;5033628;28;20460;-82
2022/01/21 09:03:46;;;;;;;13.63;6.37;;;;;;;2.94;85.33;95254.94;5033556;28;20468;-81
2022/01/21 09:06:16;;;;;;;23.93;8.07;;;;;;;3.06;83.96;95262.09;5033561;28;20479;-82
2022/01/21 09:08:45;;;;;;;22.63;13.60;;;;;;;3.17;83.51;95253.78;5034196;28;20480;-82
2022/01/21 09:11:13;;;;;;;23.57;13.40;;;;;;;3.29;83.36;95240.22;5033261;28;20444;-82
2022/01/21 09:13:41;;;;;;;30.03;14.60;;;;;;;3.46;82.94;95243.69;5032452;28;20504;-83
2022/01/21 09:16:11;;;;;;;21.77;15.60;;;;;;;3.49;80.96;95241.78;5033388;28;20450;-81
2022/01/21 09:18:49;;;;;;;19.63;7.63;;;;;;;3.55;80.02;95235.44;5033637;28;20440;-82
2022/01/21 09:21:19;;;;;;;18.00;8.40;;;;;;;3.67;79.38;95238.22;5034114;28;20463;-83
2022/01/21 09:23:49;;;;;;;8.50;4.20;;;;;;;3.65;76.95;95219.31;5033630;28;20441;-80
2022/01/21 09:26:17;;;;;;;14.40;6.23;;;;;;;3.84;77.67;95220.94;5033906;28;20485;-82
2022/01/21 09:28:45;;;;;;;16.03;5.80;;;;;;;3.91;76.26;95219.69;5033433;28;20780;-82
2022/01/21 09:31:14;;;;;;;12.93;5.47;;;;;;;4.07;77.33;95211.94;5033941;28;20777;-82
2022/01/21 09:33:41;;;;;;;9.27;7.70;;;;;;;4.12;76.90;95200.38;5033237;28;20475;-81
2022/01/21 09:36:10;;;;;;;23.10;9.37;;;;;;;4.12;74.52;95186.53;5047697;28;20506;-81
2022/01/21 09:38:37;;;;;;;11.60;5.90;;;;;;;4.16;74.65;95175.06;5053412;27;20478;-81
2022/01/21 09:44:45;;;;;;;6.37;3.70;;;;;;;4.36;74.39;95164.41;5053087;28;20401;-80
2022/01/21 09:47:16;;;;;;;6.00;3.77;;;;;;;4.39;72.98;95169.44;5053025;28;20444;-82
2022/01/21 09:49:45;;;;;;;8.30;4.37;;;;;;;4.51;73.77;95181.72;5053295;28;20442;-81
2022/01/21 09:52:16;;;;;;;15.10;8.73;;;;;;;4.39;73.36;95181.59;5052650;28;21337;-81
2022/01/21 09:54:47;;;;;;;16.23;11.87;;;;;;;4.19;72.60;95178.31;5053293;27;20541;-80
2022/01/21 09:57:20;;;;;;;15.83;10.90;;;;;;;3.98;71.03;95180.31;5052953;28;20745;-81
2022/01/21 09:59:47;;;;;;;19.43;15.33;;;;;;;3.86;72.41;95172.38;5052720;28;21001;-81
2022/01/21 10:02:18;;;;;;;25.60;17.17;;;;;;;3.83;71.71;95177.75;5052795;28;20459;-81
2022/01/21 10:04:47;;;;;;;32.13;20.40;;;;;;;3.85;72.21;95165.50;5040748;28;20446;-82
2022/01/21 10:07:17;;;;;;;21.67;12.20;;;;;;;3.94;72.85;95165.84;5033352;28;20198;-81
2022/01/21 10:09:45;;;;;;;13.83;11.33;;;;;;;3.97;71.16;95168.28;5041098;28;20443;-80
2022/01/21 10:12:15;;;;;;;19.97;12.20;;;;;;;4.10;70.80;95170.22;5045298;27;20464;-81
2022/01/21 10:14:44;;;;;;;15.00;11.97;;;;;;;4.23;71.80;95161.63;5033708;28;20446;-80
2022/01/21 10:17:11;;;;;;;27.23;20.00;;;;;;;4.39;71.15;95156.44;5037768;28;20444;-81
2022/01/21 10:19:48;;;;;;;27.60;18.10;;;;;;;4.25;67.89;95165.00;5042388;28;20467;-80
2022/01/21 10:22:18;;;;;;;24.00;13.60;;;;;;;3.88;72.34;95152.38;5049418;28;20837;-81
2022/01/21 10:24:58;;;;;;;43.53;26.70;;;;;;;3.67;76.16;95151.75;5050951;27;20471;-81
2022/01/21 10:27:25;;;;;;;30.10;21.07;;;;;;;3.49;78.13;95152.75;5026074;28;20939;-81
2022/01/21 10:29:53;;;;;;;20.67;12.87;;;;;;;3.25;78.25;95149.69;5041405;28;20456;-80
2022/01/21 10:32:34;;;;;;;19.70;12.70;;;;;;;3.21;80.40;95137.81;5034799;28;20484;-81
2022/01/21 10:35:03;;;;;;;20.43;13.40;;;;;;;3.21;79.13;95135.22;5037838;28;20444;-81
2022/01/21 10:37:35;;;;;;;28.07;15.83;;;;;;;3.14;80.41;95139.03;5041093;28;21020;-81
2022/01/21 10:40:06;;;;;;;16.10;11.60;;;;;;;3.04;79.36;95136.91;5044037;28;20432;-79
2022/01/21 10:42:36;;;;;;;16.00;10.07;;;;;;;3.13;79.81;95137.34;5052053;28;20424;-81
2022/01/21 10:45:05;;;;;;;17.23;11.83;;;;;;;3.25;80.13;95144.50;5051942;28;20808;-81
2022/01/21 10:47:33;;;;;;;24.17;13.60;;;;;;;3.33;79.04;95130.22;5052356;28;20455;-81
2022/01/21 10:50:06;;;;;;;23.60;11.67;;;;;;;3.38;77.84;95127.38;5051811;28;21063;-80
2022/01/21 10:52:35;;;;;;;20.03;10.77;;;;;;;3.44;77.69;95134.81;5051643;28;20982;-77
2022/01/21 10:55:02;;;;;;;30.33;17.83;;;;;;;3.53;76.40;95134.34;5050885;28;20460;-79
2022/01/21 10:57:32;;;;;;;22.50;14.47;;;;;;;3.56;76.02;95126.41;5051633;28;20432;-78
2022/01/21 11:00:04;;;;;;;16.40;9.70;;;;;;;3.68;75.45;95123.13;5051755;28;20447;-79
2022/01/21 11:02:42;;;;;;;10.43;8.07;;;;;;;3.74;75.41;95120.19;5051979;28;20795;-79
2022/01/21 11:05:18;;;;;;;12.10;7.00;;;;;;;3.52;73.80;95113.69;5052083;27;20436;-78
2022/01/21 11:07:47;;;;;;;7.20;6.53;;;;;;;3.41;73.61;95112.47;5086054;28;20430;-79
2022/01/21 11:20:25;;;;;;;8.47;6.23;;;;;;;2.94;71.30;95094.25;5052240;28;20438;-80
2022/01/21 11:22:55;;;;;;;20.93;10.70;;;;;;;2.88;72.09;95089.34;5051608;28;20434;-82
2022/01/21 11:25:48;;;;;;;10.17;6.10;;;;;;;2.77;72.46;95089.94;5051852;28;20969;-80
2022/01/21 11:28:16;;;;;;;7.03;4.80;;;;;;;2.74;73.14;95100.44;5051436;27;20496;-79
2022/01/21 11:30:44;;;;;;;5.00;4.50;;;;;;;2.76;72.73;95105.56;5046878;28;20441;-80
2022/01/21 11:33:14;;;;;;;10.70;5.90;;;;;;;2.78;74.00;95094.19;5031190;28;20481;-80
2022/01/21 11:35:42;;;;;;;6.40;5.80;;;;;;;2.79;75.04;95087.25;5031184;28;20505;-80
2022/01/21 11:38:12;;;;;;;7.50;5.57;;;;;;;2.64;74.84;95080.28;5031049;28;20437;-80
2022/01/21 11:40:40;;;;;;;6.03;5.10;;;;;;;2.67;75.53;95103.44;5047588;28;20454;-80
2022/01/21 11:43:11;;;;;;;8.40;5.83;;;;;;;2.50;76.20;95106.84;5050920;28;20438;-80
2022/01/21 11:46:15;;;;;;;14.53;9.03;;;;;;;2.42;77.49;95102.06;5051123;28;20916;-80
2022/01/21 11:48:52;;;;;;;23.53;13.60;;;;;;;2.35;78.73;95110.22;5051629;28;20577;-82
2022/01/21 11:51:30;;;;;;;11.47;7.70;;;;;;;2.18;75.54;95103.28;5050628;27;20456;-82
2022/01/21 11:54:01;;;;;;;14.13;7.40;;;;;;;2.16;76.14;95110.28;5050623;28;20465;-79
2022/01/21 11:56:43;;;;;;;6.97;5.03;;;;;;;2.14;74.23;95107.75;5050469;28;20445;-82
2022/01/21 11:59:23;;;;;;;10.03;6.20;;;;;;;2.06;74.68;95109.06;5050988;28;20481;-82
2022/01/21 12:01:53;;;;;;;6.07;4.60;;;;;;;1.97;75.13;95110.31;5050944;28;20479;-81
2022/01/21 12:04:46;;;;;;;11.50;8.23;;;;;;;1.87;75.09;95101.31;5016079;28;20437;-81
2022/01/21 12:07:48;;;;;;;4.97;4.13;;;;;;;1.76;75.79;95101.84;5050434;28;20784;-81
2022/01/21 12:10:23;;;;;;;7.43;5.63;;;;;;;1.90;76.25;95108.09;5050816;28;20444;-81
2022/01/21 12:13:04;;;;;;;9.88;7.63;;;;;;;2.11;77.35;95092.38;5050481;28;20227;-81
2022/01/21 12:15:54;;;;;;;12.33;6.50;;;;;;;2.06;75.05;95091.78;5016666;28;20215;-81
2022/01/21 12:18:39;;;;;;;10.30;6.67;;;;;;;2.10;76.31;95089.88;5050977;28;20453;-80
2022/01/21 12:21:37;;;;;;;7.63;5.13;;;;;;;1.97;75.40;95099.97;5051702;28;20462;-80
2022/01/21 12:24:13;;;;;;;7.88;5.00;;;;;;;1.86;73.92;95092.72;5050341;28;20456;-81
2022/01/21 12:27:00;;;;;;;7.73;5.57;;;;;;;1.76;75.31;95094.09;5050905;28;20198;-81
2022/01/21 12:29:43;;;;;;;6.83;5.40;;;;;;;1.62;75.59;95091.28;5051365;28;20852;-80
2022/01/21 12:32:43;;;;;;;7.35;4.85;;;;;;;1.46;76.68;95083.41;5033648;28;20450;-81
2022/01/21 12:35:19;;;;;;;5.13;4.35;;;;;;;1.55;78.93;95071.81;5050369;28;20197;-81
2022/01/21 12:41:01;;;;;;;10.67;7.77;;;;;;;1.82;76.69;95083.44;5050223;28;20763;-79
2022/01/21 12:43:42;;;;;;;7.40;6.25;;;;;;;1.75;76.60;95082.06;5034826;28;20921;-79
2022/01/21 12:46:14;;;;;;;8.60;6.90;;;;;;;1.86;77.62;95072.03;5030020;28;20197;-79
2022/01/21 12:48:45;;;;;;;8.00;5.10;;;;;;;1.68;75.24;95069.47;5030339;28;20454;-79
2022/01/21 12:51:34;;;;;;;11.65;7.97;;;;;;;1.61;76.34;95060.31;5029787;28;20436;-80
2022/01/21 12:56:58;;;;;;;14.70;9.67;;;;;;;1.67;76.98;95076.38;5091288;28;20958;-78
2022/01/21 12:59:29;;;;;;;19.05;11.13;;;;;;;1.66;78.14;95069.53;5094570;28;20442;-79
2022/01/21 13:01:58;;;;;;;11.43;8.40;;;;;;;1.71;77.31;95077.06;5099223;28;20270;-82
2022/01/21 13:04:41;;;;;;;9.07;7.85;;;;;;;1.67;77.83;95076.38;5090872;28;20194;-83
2022/01/21 13:07:15;;;;;;;25.73;11.32;;;;;;;1.81;78.11;95074.00;5090837;28;20209;-81
2022/01/21 13:10:14;;;;;;;13.70;8.03;;;;;;;1.65;76.23;95065.28;5091298;28;20235;-80
2022/01/21 13:13:12;;;;;;;12.52;8.45;;;;;;;1.75;77.44;95084.66;4969445;28;20555;-81
2022/01/21 13:15:41;;;;;;;15.02;7.53;;;;;;;1.75;77.71;95089.81;5011026;28;20205;-81
2022/01/21 13:18:09;;;;;;;16.77;9.40;;;;;;;1.88;78.20;95092.66;5013266;28;20649;-83
2022/01/21 13:20:49;;;;;;;12.93;7.07;;;;;;;1.76;75.64;95095.84;5025186;28;20567;-80
2022/01/21 13:23:35;;;;;;;5.17;4.13;;;;;;;1.58;74.99;95087.19;5014744;28;20922;-80
2022/01/21 13:26:23;;;;;;;42.08;7.63;;;;;;;1.31;75.54;95088.44;4998048;28;21112;-82
2022/01/21 13:29:00;;;;;;;15.23;6.15;;;;;;;1.20;76.62;95091.53;4997786;28;20200;-79